sensor_id;sensor_type;location;lat;lon;timestamp;P1;durP1;ratioP1;P2;durP2;ratioP2
73508;SDS011;61750;55.036;73.312;2022-10-16T00:01:24;39.00;;;17.95;;
73508;SDS011;61750;55.036;73.312;2022-10-16T00:03:53;34.13;;;17.35;;
73508;SDS011;61750;55.036;73.312;2022-10-16T00:06:20;30.50;;;16.98;;
73508;SDS011;61750;55.036;73.312;2022-10-16T00:08:57;38.47;;;16.83;;
73508;SDS011;61750;55.036;73.312;2022-10-16T00:13:54;31.15;;;16.13;;
73508;SDS011;61750;55.036;73.312;2022-10-16T00:16:22;31.50;;;16.75;;
73508;SDS011;61750;55.036;73.312;2022-10-16T00:18:48;38.72;;;18.33;;
73508;SDS011;61750;55.036;73.312;2022-10-16T00:21:16;33.38;;;17.52;;
73508;SDS011;61750;55.036;73.312;2022-10-16T00:23:52;38.43;;;18.20;;
73508;SDS011;61750;55.036;73.312;2022-10-16T00:26:24;36.75;;;19.35;;
73508;SDS011;61750;55.036;73.312;2022-10-16T00:28:52;39.53;;;18.85;;
73508;SDS011;61750;55.036;73.312;2022-10-16T00:31:19;56.00;;;23.67;;
73508;SDS011;61750;55.036;73.312;2022-10-16T00:33:46;57.53;;;23.75;;
73508;SDS011;61750;55.036;73.312;2022-10-16T00:36:14;54.42;;;23.55;;
73508;SDS011;61750;55.036;73.312;2022-10-16T00:38:43;54.00;;;25.75;;
73508;SDS011;61750;55.036;73.312;2022-10-16T00:41:15;53.72;;;26.17;;
73508;SDS011;61750;55.036;73.312;2022-10-16T00:43:50;43.63;;;21.67;;
73508;SDS011;61750;55.036;73.312;2022-10-16T00:46:39;51.50;;;23.73;;
73508;SDS011;61750;55.036;73.312;2022-10-16T00:49:11;51.85;;;24.73;;
73508;SDS011;61750;55.036;73.312;2022-10-16T00:51:54;47.97;;;26.05;;
73508;SDS011;61750;55.036;73.312;2022-10-16T00:54:22;49.67;;;25.63;;
73508;SDS011;61750;55.036;73.312;2022-10-16T00:56:55;51.17;;;24.70;;
73508;SDS011;61750;55.036;73.312;2022-10-16T00:59:25;49.00;;;25.02;;
73508;SDS011;61750;55.036;73.312;2022-10-16T01:01:53;51.88;;;26.95;;
73508;SDS011;61750;55.036;73.312;2022-10-16T01:04:21;51.28;;;25.83;;
73508;SDS011;61750;55.036;73.312;2022-10-16T01:09:31;54.10;;;27.58;;
73508;SDS011;61750;55.036;73.312;2022-10-16T01:16:05;44.88;;;23.14;;
73508;SDS011;61750;55.036;73.312;2022-10-16T01:18:35;47.80;;;25.33;;
73508;SDS011;61750;55.036;73.312;2022-10-16T01:21:04;51.15;;;25.27;;
73508;SDS011;61750;55.036;73.312;2022-10-16T01:23:51;53.40;;;27.88;;
73508;SDS011;61750;55.036;73.312;2022-10-16T01:29:34;49.17;;;24.15;;
73508;SDS011;61750;55.036;73.312;2022-10-16T01:35:02;46.78;;;24.45;;
73508;SDS011;61750;55.036;73.312;2022-10-16T01:37:38;45.40;;;24.52;;
73508;SDS011;61750;55.036;73.312;2022-10-16T01:40:49;50.95;;;25.05;;
73508;SDS011;61750;55.036;73.312;2022-10-16T01:43:19;42.25;;;24.17;;
73508;SDS011;61750;55.036;73.312;2022-10-16T01:45:48;13.00;;;9.60;;
73508;SDS011;61750;55.036;73.312;2022-10-16T01:48:16;43.85;;;23.25;;
73508;SDS011;61750;55.036;73.312;2022-10-16T01:50:59;39.37;;;20.17;;
73508;SDS011;61750;55.036;73.312;2022-10-16T01:53:30;37.50;;;21.33;;
73508;SDS011;61750;55.036;73.312;2022-10-16T01:55:58;39.20;;;19.98;;
73508;SDS011;61750;55.036;73.312;2022-10-16T01:58:26;38.08;;;20.20;;
73508;SDS011;61750;55.036;73.312;2022-10-16T02:00:53;34.35;;;18.48;;
73508;SDS011;61750;55.036;73.312;2022-10-16T02:03:22;40.60;;;21.33;;
73508;SDS011;61750;55.036;73.312;2022-10-16T02:05:50;43.60;;;21.73;;
73508;SDS011;61750;55.036;73.312;2022-10-16T02:08:25;41.63;;;21.20;;
73508;SDS011;61750;55.036;73.312;2022-10-16T02:10:56;34.00;;;18.00;;
73508;SDS011;61750;55.036;73.312;2022-10-16T02:13:33;38.38;;;21.42;;
73508;SDS011;61750;55.036;73.312;2022-10-16T02:16:13;41.35;;;22.27;;
73508;SDS011;61750;55.036;73.312;2022-10-16T02:18:45;39.38;;;20.55;;
73508;SDS011;61750;55.036;73.312;2022-10-16T02:21:26;37.87;;;21.37;;
73508;SDS011;61750;55.036;73.312;2022-10-16T02:29:46;35.55;;;20.67;;
73508;SDS011;61750;55.036;73.312;2022-10-16T02:32:19;45.28;;;20.98;;
73508;SDS011;61750;55.036;73.312;2022-10-16T02:34:48;38.47;;;20.05;;
73508;SDS011;61750;55.036;73.312;2022-10-16T02:37:16;35.60;;;20.63;;
73508;SDS011;61750;55.036;73.312;2022-10-16T02:39:43;39.10;;;18.65;;
73508;SDS011;61750;55.036;73.312;2022-10-16T02:42:13;40.53;;;21.05;;
73508;SDS011;61750;55.036;73.312;2022-10-16T02:44:40;38.83;;;22.08;;
73508;SDS011;61750;55.036;73.312;2022-10-16T02:47:06;38.00;;;21.35;;
73508;SDS011;61750;55.036;73.312;2022-10-16T02:49:32;39.30;;;21.40;;
73508;SDS011;61750;55.036;73.312;2022-10-16T02:51:58;33.50;;;19.52;;
73508;SDS011;61750;55.036;73.312;2022-10-16T02:54:25;33.80;;;17.95;;
73508;SDS011;61750;55.036;73.312;2022-10-16T02:56:51;29.85;;;16.75;;
73508;SDS011;61750;55.036;73.312;2022-10-16T02:59:17;33.95;;;18.30;;
73508;SDS011;61750;55.036;73.312;2022-10-16T03:01:44;31.48;;;16.42;;
73508;SDS011;61750;55.036;73.312;2022-10-16T03:04:10;30.73;;;16.10;;
73508;SDS011;61750;55.036;73.312;2022-10-16T03:09:03;32.53;;;15.63;;
73508;SDS011;61750;55.036;73.312;2022-10-16T03:11:29;26.40;;;15.23;;
73508;SDS011;61750;55.036;73.312;2022-10-16T03:13:55;29.15;;;14.55;;
73508;SDS011;61750;55.036;73.312;2022-10-16T03:16:31;52.10;;;18.92;;
73508;SDS011;61750;55.036;73.312;2022-10-16T03:19:07;34.33;;;15.87;;
73508;SDS011;61750;55.036;73.312;2022-10-16T03:21:33;30.65;;;14.98;;
73508;SDS011;61750;55.036;73.312;2022-10-16T03:24:00;38.97;;;17.67;;
73508;SDS011;61750;55.036;73.312;2022-10-16T03:26:26;28.63;;;14.70;;
73508;SDS011;61750;55.036;73.312;2022-10-16T03:28:52;30.13;;;17.42;;
73508;SDS011;61750;55.036;73.312;2022-10-16T03:31:18;33.55;;;17.33;;
73508;SDS011;61750;55.036;73.312;2022-10-16T03:33:49;31.13;;;16.45;;
73508;SDS011;61750;55.036;73.312;2022-10-16T03:36:15;32.85;;;16.73;;
73508;SDS011;61750;55.036;73.312;2022-10-16T03:38:42;25.73;;;14.55;;
73508;SDS011;61750;55.036;73.312;2022-10-16T03:41:08;28.23;;;15.40;;
73508;SDS011;61750;55.036;73.312;2022-10-16T03:43:34;25.35;;;15.68;;
73508;SDS011;61750;55.036;73.312;2022-10-16T03:46:00;26.17;;;13.98;;
73508;SDS011;61750;55.036;73.312;2022-10-16T03:48:27;27.88;;;14.63;;
73508;SDS011;61750;55.036;73.312;2022-10-16T03:50:54;24.25;;;13.52;;
73508;SDS011;61750;55.036;73.312;2022-10-16T03:53:20;31.27;;;14.98;;
73508;SDS011;61750;55.036;73.312;2022-10-16T03:58:12;26.92;;;13.80;;
73508;SDS011;61750;55.036;73.312;2022-10-16T04:03:15;31.88;;;14.00;;
73508;SDS011;61750;55.036;73.312;2022-10-16T04:05:42;28.25;;;12.82;;
73508;SDS011;61750;55.036;73.312;2022-10-16T04:08:09;31.45;;;13.48;;
73508;SDS011;61750;55.036;73.312;2022-10-16T04:13:12;26.33;;;13.15;;
73508;SDS011;61750;55.036;73.312;2022-10-16T04:18:12;26.38;;;12.38;;
73508;SDS011;61750;55.036;73.312;2022-10-16T04:23:12;25.92;;;12.90;;
73508;SDS011;61750;55.036;73.312;2022-10-16T04:28:12;20.98;;;12.68;;
73508;SDS011;61750;55.036;73.312;2022-10-16T04:33:12;22.98;;;12.90;;
73508;SDS011;61750;55.036;73.312;2022-10-16T04:35:39;22.52;;;12.80;;
73508;SDS011;61750;55.036;73.312;2022-10-16T04:38:05;22.52;;;12.23;;
73508;SDS011;61750;55.036;73.312;2022-10-16T04:43:12;21.30;;;12.40;;
73508;SDS011;61750;55.036;73.312;2022-10-16T04:48:17;26.58;;;13.02;;
73508;SDS011;61750;55.036;73.312;2022-10-16T04:53:12;25.92;;;13.35;;
73508;SDS011;61750;55.036;73.312;2022-10-16T04:58:22;26.83;;;14.15;;
73508;SDS011;61750;55.036;73.312;2022-10-16T05:00:49;13.60;;;8.05;;
73508;SDS011;61750;55.036;73.312;2022-10-16T05:03:16;24.85;;;14.00;;
73508;SDS011;61750;55.036;73.312;2022-10-16T05:05:43;26.30;;;14.10;;
73508;SDS011;61750;55.036;73.312;2022-10-16T05:08:11;34.42;;;14.35;;
73508;SDS011;61750;55.036;73.312;2022-10-16T05:13:12;25.17;;;13.98;;
73508;SDS011;61750;55.036;73.312;2022-10-16T05:18:18;26.23;;;14.25;;
73508;SDS011;61750;55.036;73.312;2022-10-16T05:23:12;22.30;;;13.10;;
73508;SDS011;61750;55.036;73.312;2022-10-16T05:28:29;29.00;;;13.93;;
73508;SDS011;61750;55.036;73.312;2022-10-16T05:30:56;33.58;;;14.30;;
73508;SDS011;61750;55.036;73.312;2022-10-16T05:33:25;32.70;;;14.77;;
73508;SDS011;61750;55.036;73.312;2022-10-16T05:35:52;33.88;;;15.43;;
73508;SDS011;61750;55.036;73.312;2022-10-16T05:38:18;36.40;;;16.08;;
73508;SDS011;61750;55.036;73.312;2022-10-16T05:43:18;34.35;;;17.63;;
73508;SDS011;61750;55.036;73.312;2022-10-16T05:45:56;23.20;;;12.80;;
73508;SDS011;61750;55.036;73.312;2022-10-16T05:48:24;39.10;;;17.23;;
73508;SDS011;61750;55.036;73.312;2022-10-16T05:50:56;31.60;;;14.50;;
73508;SDS011;61750;55.036;73.312;2022-10-16T05:53:27;49.70;;;18.58;;
73508;SDS011;61750;55.036;73.312;2022-10-16T05:56:04;35.05;;;16.63;;
73508;SDS011;61750;55.036;73.312;2022-10-16T05:58:37;63.33;;;23.05;;
73508;SDS011;61750;55.036;73.312;2022-10-16T06:01:08;47.80;;;22.02;;
73508;SDS011;61750;55.036;73.312;2022-10-16T06:03:52;28.50;;;10.82;;
73508;SDS011;61750;55.036;73.312;2022-10-16T06:06:19;22.98;;;9.93;;
73508;SDS011;61750;55.036;73.312;2022-10-16T06:08:47;17.02;;;8.60;;
73508;SDS011;61750;55.036;73.312;2022-10-16T06:11:16;17.90;;;10.07;;
73508;SDS011;61750;55.036;73.312;2022-10-16T06:13:43;13.85;;;8.13;;
73508;SDS011;61750;55.036;73.312;2022-10-16T06:16:11;19.48;;;10.30;;
73508;SDS011;61750;55.036;73.312;2022-10-16T06:18:43;18.25;;;9.05;;
73508;SDS011;61750;55.036;73.312;2022-10-16T06:21:16;19.50;;;9.38;;
73508;SDS011;61750;55.036;73.312;2022-10-16T06:23:53;12.98;;;8.20;;
73508;SDS011;61750;55.036;73.312;2022-10-16T06:26:22;16.02;;;7.72;;
73508;SDS011;61750;55.036;73.312;2022-10-16T06:29:00;16.50;;;7.35;;
73508;SDS011;61750;55.036;73.312;2022-10-16T06:31:27;19.58;;;8.65;;
73508;SDS011;61750;55.036;73.312;2022-10-16T06:33:56;22.85;;;9.80;;
73508;SDS011;61750;55.036;73.312;2022-10-16T06:36:23;16.92;;;8.07;;
73508;SDS011;61750;55.036;73.312;2022-10-16T06:38:50;17.10;;;7.55;;
73508;SDS011;61750;55.036;73.312;2022-10-16T06:41:17;17.55;;;8.15;;
73508;SDS011;61750;55.036;73.312;2022-10-16T06:43:45;14.20;;;7.50;;
73508;SDS011;61750;55.036;73.312;2022-10-16T06:46:16;18.55;;;9.77;;
73508;SDS011;61750;55.036;73.312;2022-10-16T06:48:47;19.40;;;8.20;;
73508;SDS011;61750;55.036;73.312;2022-10-16T06:51:14;12.97;;;7.13;;
73508;SDS011;61750;55.036;73.312;2022-10-16T06:53:43;16.00;;;6.90;;
73508;SDS011;61750;55.036;73.312;2022-10-16T06:56:23;14.00;;;7.22;;
73508;SDS011;61750;55.036;73.312;2022-10-16T06:58:51;13.90;;;7.45;;
73508;SDS011;61750;55.036;73.312;2022-10-16T07:01:18;16.90;;;6.78;;
73508;SDS011;61750;55.036;73.312;2022-10-16T07:03:47;17.70;;;7.03;;
73508;SDS011;61750;55.036;73.312;2022-10-16T07:06:22;21.92;;;7.10;;
73508;SDS011;61750;55.036;73.312;2022-10-16T07:08:49;17.85;;;7.13;;
73508;SDS011;61750;55.036;73.312;2022-10-16T07:11:17;18.42;;;6.97;;
73508;SDS011;61750;55.036;73.312;2022-10-16T07:13:55;12.23;;;6.55;;
73508;SDS011;61750;55.036;73.312;2022-10-16T07:16:28;13.05;;;6.65;;
73508;SDS011;61750;55.036;73.312;2022-10-16T07:19:06;11.57;;;6.97;;
73508;SDS011;61750;55.036;73.312;2022-10-16T07:21:33;10.93;;;6.32;;
73508;SDS011;61750;55.036;73.312;2022-10-16T07:24:04;16.08;;;7.10;;
73508;SDS011;61750;55.036;73.312;2022-10-16T07:26:33;13.60;;;7.35;;
73508;SDS011;61750;55.036;73.312;2022-10-16T07:29:01;18.05;;;7.57;;
73508;SDS011;61750;55.036;73.312;2022-10-16T07:31:27;14.95;;;8.30;;
73508;SDS011;61750;55.036;73.312;2022-10-16T07:36:20;20.02;;;8.70;;
73508;SDS011;61750;55.036;73.312;2022-10-16T07:38:47;16.73;;;8.75;;
73508;SDS011;61750;55.036;73.312;2022-10-16T07:41:14;18.67;;;8.85;;
73508;SDS011;61750;55.036;73.312;2022-10-16T07:43:46;16.85;;;9.00;;
73508;SDS011;61750;55.036;73.312;2022-10-16T07:46:14;16.15;;;9.05;;
73508;SDS011;61750;55.036;73.312;2022-10-16T07:48:42;18.67;;;9.23;;
73508;SDS011;61750;55.036;73.312;2022-10-16T07:51:17;18.55;;;8.48;;
73508;SDS011;61750;55.036;73.312;2022-10-16T07:53:44;23.75;;;9.05;;
73508;SDS011;61750;55.036;73.312;2022-10-16T07:56:11;22.40;;;9.52;;
73508;SDS011;61750;55.036;73.312;2022-10-16T07:58:38;20.33;;;8.95;;
73508;SDS011;61750;55.036;73.312;2022-10-16T08:01:08;15.45;;;8.27;;
73508;SDS011;61750;55.036;73.312;2022-10-16T08:03:36;18.23;;;9.00;;
73508;SDS011;61750;55.036;73.312;2022-10-16T08:06:03;22.10;;;9.25;;
73508;SDS011;61750;55.036;73.312;2022-10-16T08:08:30;16.92;;;8.82;;
73508;SDS011;61750;55.036;73.312;2022-10-16T08:10:56;25.27;;;9.52;;
73508;SDS011;61750;55.036;73.312;2022-10-16T08:13:22;19.05;;;10.40;;
73508;SDS011;61750;55.036;73.312;2022-10-16T08:15:51;15.20;;;9.15;;
73508;SDS011;61750;55.036;73.312;2022-10-16T08:18:19;19.77;;;10.10;;
73508;SDS011;61750;55.036;73.312;2022-10-16T08:20:56;22.35;;;8.40;;
73508;SDS011;61750;55.036;73.312;2022-10-16T08:23:24;20.02;;;8.35;;
73508;SDS011;61750;55.036;73.312;2022-10-16T08:25:52;11.20;;;6.10;;
73508;SDS011;61750;55.036;73.312;2022-10-16T08:28:19;17.45;;;8.70;;
73508;SDS011;61750;55.036;73.312;2022-10-16T08:33:12;18.17;;;8.47;;
73508;SDS011;61750;55.036;73.312;2022-10-16T08:35:38;23.13;;;10.15;;
73508;SDS011;61750;55.036;73.312;2022-10-16T08:38:05;20.50;;;10.02;;
73508;SDS011;61750;55.036;73.312;2022-10-16T08:51:18;15.63;;;10.02;;
73508;SDS011;61750;55.036;73.312;2022-10-16T08:56:19;18.30;;;9.53;;
73508;SDS011;61750;55.036;73.312;2022-10-16T08:58:46;21.55;;;9.65;;
73508;SDS011;61750;55.036;73.312;2022-10-16T09:01:14;15.85;;;7.43;;
73508;SDS011;61750;55.036;73.312;2022-10-16T09:03:47;14.00;;;6.43;;
73508;SDS011;61750;55.036;73.312;2022-10-16T09:20:51;13.23;;;6.15;;
73508;SDS011;61750;55.036;73.312;2022-10-16T09:23:35;17.65;;;7.10;;
73508;SDS011;61750;55.036;73.312;2022-10-16T09:26:03;19.33;;;6.90;;
73508;SDS011;61750;55.036;73.312;2022-10-16T09:28:31;13.00;;;6.40;;
73508;SDS011;61750;55.036;73.312;2022-10-16T09:30:57;16.35;;;6.25;;
73508;SDS011;61750;55.036;73.312;2022-10-16T09:33:25;13.05;;;7.85;;
73508;SDS011;61750;55.036;73.312;2022-10-16T09:35:56;17.27;;;8.45;;
73508;SDS011;61750;55.036;73.312;2022-10-16T09:40:55;17.63;;;10.27;;
73508;SDS011;61750;55.036;73.312;2022-10-16T09:43:24;15.10;;;9.68;;
73508;SDS011;61750;55.036;73.312;2022-10-16T09:46:08;22.30;;;10.50;;
73508;SDS011;61750;55.036;73.312;2022-10-16T09:48:48;17.08;;;10.68;;
73508;SDS011;61750;55.036;73.312;2022-10-16T09:56:28;19.05;;;10.90;;
73508;SDS011;61750;55.036;73.312;2022-10-16T09:59:00;26.70;;;12.95;;
73508;SDS011;61750;55.036;73.312;2022-10-16T10:01:51;16.50;;;8.80;;
73508;SDS011;61750;55.036;73.312;2022-10-16T10:04:19;16.33;;;8.77;;
73508;SDS011;61750;55.036;73.312;2022-10-16T10:06:54;18.35;;;8.77;;
73508;SDS011;61750;55.036;73.312;2022-10-16T10:09:26;16.45;;;8.35;;
73508;SDS011;61750;55.036;73.312;2022-10-16T10:14:34;9.68;;;6.05;;
73508;SDS011;61750;55.036;73.312;2022-10-16T10:19:46;12.60;;;5.25;;
73508;SDS011;61750;55.036;73.312;2022-10-16T10:24:56;16.10;;;5.75;;
73508;SDS011;61750;55.036;73.312;2022-10-16T10:30:55;16.75;;;6.28;;
73508;SDS011;61750;55.036;73.312;2022-10-16T10:33:31;14.00;;;7.07;;
73508;SDS011;61750;55.036;73.312;2022-10-16T10:44:11;47.25;;;17.25;;
73508;SDS011;61750;55.036;73.312;2022-10-16T10:46:51;52.72;;;18.17;;
73508;SDS011;61750;55.036;73.312;2022-10-16T10:55:05;14.40;;;6.40;;
73508;SDS011;61750;55.036;73.312;2022-10-16T10:57:54;21.83;;;6.35;;
73508;SDS011;61750;55.036;73.312;2022-10-16T11:01:01;14.52;;;6.28;;
73508;SDS011;61750;55.036;73.312;2022-10-16T11:03:53;15.60;;;6.43;;
73508;SDS011;61750;55.036;73.312;2022-10-16T11:06:46;14.73;;;5.70;;
73508;SDS011;61750;55.036;73.312;2022-10-16T11:12:14;15.68;;;6.72;;
73508;SDS011;61750;55.036;73.312;2022-10-16T11:17:47;16.95;;;6.10;;
73508;SDS011;61750;55.036;73.312;2022-10-16T11:20:53;8.98;;;5.70;;
73508;SDS011;61750;55.036;73.312;2022-10-16T11:23:29;9.38;;;6.00;;
73508;SDS011;61750;55.036;73.312;2022-10-16T11:26:00;11.25;;;6.00;;
73508;SDS011;61750;55.036;73.312;2022-10-16T11:28:48;11.20;;;5.65;;
73508;SDS011;61750;55.036;73.312;2022-10-16T11:31:22;7.93;;;4.65;;
73508;SDS011;61750;55.036;73.312;2022-10-16T11:34:11;12.18;;;4.40;;
73508;SDS011;61750;55.036;73.312;2022-10-16T11:39:42;8.18;;;4.63;;
73508;SDS011;61750;55.036;73.312;2022-10-16T11:42:10;9.68;;;5.20;;
73508;SDS011;61750;55.036;73.312;2022-10-16T11:56:19;9.95;;;6.00;;
73508;SDS011;61750;55.036;73.312;2022-10-16T11:59:07;12.23;;;6.05;;
73508;SDS011;61750;55.036;73.312;2022-10-16T12:07:14;10.32;;;5.82;;
73508;SDS011;61750;55.036;73.312;2022-10-16T12:09:45;8.07;;;5.00;;
73508;SDS011;61750;55.036;73.312;2022-10-16T12:12:24;10.73;;;5.32;;
73508;SDS011;61750;55.036;73.312;2022-10-16T12:17:57;11.93;;;5.25;;
73508;SDS011;61750;55.036;73.312;2022-10-16T12:20:53;4.80;;;3.72;;
73508;SDS011;61750;55.036;73.312;2022-10-16T12:23:24;11.90;;;5.25;;
73508;SDS011;61750;55.036;73.312;2022-10-16T12:25:54;4.50;;;3.40;;
73508;SDS011;61750;55.036;73.312;2022-10-16T12:28:22;9.32;;;5.30;;
73508;SDS011;61750;55.036;73.312;2022-10-16T12:30:54;11.07;;;4.10;;
73508;SDS011;61750;55.036;73.312;2022-10-16T12:33:28;13.63;;;5.30;;
73508;SDS011;61750;55.036;73.312;2022-10-16T12:36:02;7.85;;;5.05;;
73508;SDS011;61750;55.036;73.312;2022-10-16T12:38:38;13.10;;;5.38;;
73508;SDS011;61750;55.036;73.312;2022-10-16T12:41:12;12.20;;;5.45;;
73508;SDS011;61750;55.036;73.312;2022-10-16T12:43:54;9.38;;;5.57;;
73508;SDS011;61750;55.036;73.312;2022-10-16T12:51:37;13.70;;;5.55;;
73508;SDS011;61750;55.036;73.312;2022-10-16T12:54:11;11.32;;;6.13;;
73508;SDS011;61750;55.036;73.312;2022-10-16T13:28:15;36.10;;;18.45;;
73508;SDS011;61750;55.036;73.312;2022-10-16T13:30:53;26.40;;;15.90;;
73508;SDS011;61750;55.036;73.312;2022-10-16T13:33:30;32.08;;;18.13;;
73508;SDS011;61750;55.036;73.312;2022-10-16T13:35:58;40.35;;;20.27;;
73508;SDS011;61750;55.036;73.312;2022-10-16T13:38:26;42.55;;;20.90;;
73508;SDS011;61750;55.036;73.312;2022-10-16T13:46:06;45.38;;;25.45;;
73508;SDS011;61750;55.036;73.312;2022-10-16T13:48:37;46.17;;;27.90;;
73508;SDS011;61750;55.036;73.312;2022-10-16T13:51:18;56.50;;;30.73;;
73508;SDS011;61750;55.036;73.312;2022-10-16T13:53:54;50.90;;;28.85;;
73508;SDS011;61750;55.036;73.312;2022-10-16T13:56:26;50.95;;;28.08;;
73508;SDS011;61750;55.036;73.312;2022-10-16T13:58:58;49.88;;;28.33;;
73508;SDS011;61750;55.036;73.312;2022-10-16T14:01:27;47.88;;;26.63;;
73508;SDS011;61750;55.036;73.312;2022-10-16T14:04:00;48.67;;;27.35;;
73508;SDS011;61750;55.036;73.312;2022-10-16T14:06:34;43.33;;;25.42;;
73508;SDS011;61750;55.036;73.312;2022-10-16T14:09:06;46.97;;;26.27;;
73508;SDS011;61750;55.036;73.312;2022-10-16T14:11:46;45.40;;;25.33;;
73508;SDS011;61750;55.036;73.312;2022-10-16T14:14:17;42.53;;;22.38;;
73508;SDS011;61750;55.036;73.312;2022-10-16T14:16:46;35.40;;;22.73;;
73508;SDS011;61750;55.036;73.312;2022-10-16T14:19:24;37.85;;;22.45;;
73508;SDS011;61750;55.036;73.312;2022-10-16T14:21:52;36.13;;;23.08;;
73508;SDS011;61750;55.036;73.312;2022-10-16T14:24:26;36.50;;;22.30;;
73508;SDS011;61750;55.036;73.312;2022-10-16T14:26:56;33.73;;;22.07;;
73508;SDS011;61750;55.036;73.312;2022-10-16T14:29:29;45.35;;;26.17;;
73508;SDS011;61750;55.036;73.312;2022-10-16T14:32:01;43.08;;;24.25;;
73508;SDS011;61750;55.036;73.312;2022-10-16T14:34:36;41.22;;;25.20;;
73508;SDS011;61750;55.036;73.312;2022-10-16T14:37:13;44.10;;;25.57;;
73508;SDS011;61750;55.036;73.312;2022-10-16T14:39:50;46.90;;;26.88;;
73508;SDS011;61750;55.036;73.312;2022-10-16T14:42:17;50.17;;;27.58;;
73508;SDS011;61750;55.036;73.312;2022-10-16T14:44:45;46.47;;;28.13;;
73508;SDS011;61750;55.036;73.312;2022-10-16T14:47:13;46.47;;;26.85;;
73508;SDS011;61750;55.036;73.312;2022-10-16T14:49:42;58.13;;;29.42;;
73508;SDS011;61750;55.036;73.312;2022-10-16T14:54:38;46.70;;;28.45;;
73508;SDS011;61750;55.036;73.312;2022-10-16T14:57:04;55.15;;;30.58;;
73508;SDS011;61750;55.036;73.312;2022-10-16T14:59:38;49.45;;;30.40;;
73508;SDS011;61750;55.036;73.312;2022-10-16T15:02:21;63.05;;;30.23;;
73508;SDS011;61750;55.036;73.312;2022-10-16T15:04:51;49.45;;;28.92;;
73508;SDS011;61750;55.036;73.312;2022-10-16T15:07:17;52.22;;;31.50;;
73508;SDS011;61750;55.036;73.312;2022-10-16T15:09:44;44.30;;;27.70;;
73508;SDS011;61750;55.036;73.312;2022-10-16T15:12:10;49.00;;;29.02;;
73508;SDS011;61750;55.036;73.312;2022-10-16T15:14:36;53.97;;;31.70;;
73508;SDS011;61750;55.036;73.312;2022-10-16T15:19:29;52.88;;;30.23;;
73508;SDS011;61750;55.036;73.312;2022-10-16T15:21:55;49.83;;;28.17;;
73508;SDS011;61750;55.036;73.312;2022-10-16T15:24:32;56.20;;;32.23;;
73508;SDS011;61750;55.036;73.312;2022-10-16T15:27:03;48.75;;;28.35;;
73508;SDS011;61750;55.036;73.312;2022-10-16T15:29:29;45.83;;;27.90;;
73508;SDS011;61750;55.036;73.312;2022-10-16T15:34:22;44.28;;;27.45;;
73508;SDS011;61750;55.036;73.312;2022-10-16T15:36:48;45.85;;;28.50;;
73508;SDS011;61750;55.036;73.312;2022-10-16T15:39:15;47.90;;;29.25;;
73508;SDS011;61750;55.036;73.312;2022-10-16T15:41:44;52.10;;;32.47;;
73508;SDS011;61750;55.036;73.312;2022-10-16T15:44:16;50.08;;;32.15;;
73508;SDS011;61750;55.036;73.312;2022-10-16T15:46:43;53.15;;;32.65;;
73508;SDS011;61750;55.036;73.312;2022-10-16T15:49:09;52.20;;;32.30;;
73508;SDS011;61750;55.036;73.312;2022-10-16T15:51:46;50.15;;;32.65;;
73508;SDS011;61750;55.036;73.312;2022-10-16T15:54:12;50.05;;;33.13;;
73508;SDS011;61750;55.036;73.312;2022-10-16T15:56:38;55.45;;;33.15;;
73508;SDS011;61750;55.036;73.312;2022-10-16T15:59:05;63.13;;;35.80;;
73508;SDS011;61750;55.036;73.312;2022-10-16T16:01:32;50.45;;;30.10;;
73508;SDS011;61750;55.036;73.312;2022-10-16T16:04:00;53.08;;;29.25;;
73508;SDS011;61750;55.036;73.312;2022-10-16T16:06:26;50.50;;;28.33;;
73508;SDS011;61750;55.036;73.312;2022-10-16T16:08:52;53.60;;;28.50;;
73508;SDS011;61750;55.036;73.312;2022-10-16T16:11:24;52.15;;;30.08;;
73508;SDS011;61750;55.036;73.312;2022-10-16T16:13:50;53.45;;;29.40;;
73508;SDS011;61750;55.036;73.312;2022-10-16T16:16:16;62.88;;;30.55;;
73508;SDS011;61750;55.036;73.312;2022-10-16T16:18:45;54.45;;;31.10;;
73508;SDS011;61750;55.036;73.312;2022-10-16T16:21:11;55.47;;;30.33;;
73508;SDS011;61750;55.036;73.312;2022-10-16T16:23:38;52.90;;;29.73;;
73508;SDS011;61750;55.036;73.312;2022-10-16T16:28:41;50.00;;;29.13;;
73508;SDS011;61750;55.036;73.312;2022-10-16T16:31:14;49.20;;;28.85;;
73508;SDS011;61750;55.036;73.312;2022-10-16T16:33:40;50.22;;;30.15;;
73508;SDS011;61750;55.036;73.312;2022-10-16T16:36:06;49.25;;;28.60;;
73508;SDS011;61750;55.036;73.312;2022-10-16T16:38:33;48.58;;;28.17;;
73508;SDS011;61750;55.036;73.312;2022-10-16T16:40:59;42.35;;;26.55;;
73508;SDS011;61750;55.036;73.312;2022-10-16T16:43:35;50.33;;;27.05;;
73508;SDS011;61750;55.036;73.312;2022-10-16T16:46:02;36.45;;;19.85;;
73508;SDS011;61750;55.036;73.312;2022-10-16T16:48:28;27.85;;;14.68;;
73508;SDS011;61750;55.036;73.312;2022-10-16T16:50:54;13.32;;;7.78;;
73508;SDS011;61750;55.036;73.312;2022-10-16T16:53:20;13.32;;;8.45;;
73508;SDS011;61750;55.036;73.312;2022-10-16T16:58:13;21.00;;;10.77;;
73508;SDS011;61750;55.036;73.312;2022-10-16T17:03:12;14.05;;;8.43;;
73508;SDS011;61750;55.036;73.312;2022-10-16T17:08:07;19.90;;;11.52;;
73508;SDS011;61750;55.036;73.312;2022-10-16T17:13:17;26.95;;;15.27;;
73508;SDS011;61750;55.036;73.312;2022-10-16T17:18:13;26.83;;;14.07;;
73508;SDS011;61750;55.036;73.312;2022-10-16T17:23:18;21.80;;;13.32;;
73508;SDS011;61750;55.036;73.312;2022-10-16T17:28:12;28.98;;;16.63;;
73508;SDS011;61750;55.036;73.312;2022-10-16T17:33:12;34.35;;;20.23;;
73508;SDS011;61750;55.036;73.312;2022-10-16T17:35:40;36.75;;;21.80;;
73508;SDS011;61750;55.036;73.312;2022-10-16T17:38:13;47.25;;;25.58;;
73508;SDS011;61750;55.036;73.312;2022-10-16T17:43:12;31.75;;;17.77;;
73508;SDS011;61750;55.036;73.312;2022-10-16T17:48:17;22.40;;;13.80;;
73508;SDS011;61750;55.036;73.312;2022-10-16T17:53:12;18.92;;;11.98;;
73508;SDS011;61750;55.036;73.312;2022-10-16T17:58:12;14.75;;;8.32;;
73508;SDS011;61750;55.036;73.312;2022-10-16T18:03:15;12.02;;;6.95;;
73508;SDS011;61750;55.036;73.312;2022-10-16T18:05:41;12.25;;;6.20;;
73508;SDS011;61750;55.036;73.312;2022-10-16T18:08:12;9.52;;;5.82;;
73508;SDS011;61750;55.036;73.312;2022-10-16T18:13:13;9.50;;;5.43;;
73508;SDS011;61750;55.036;73.312;2022-10-16T18:18:22;7.38;;;4.75;;
73508;SDS011;61750;55.036;73.312;2022-10-16T18:20:57;10.20;;;5.47;;
73508;SDS011;61750;55.036;73.312;2022-10-16T18:23:27;9.40;;;5.60;;
73508;SDS011;61750;55.036;73.312;2022-10-16T18:25:54;7.78;;;4.63;;
73508;SDS011;61750;55.036;73.312;2022-10-16T18:28:21;8.40;;;5.43;;
73508;SDS011;61750;55.036;73.312;2022-10-16T18:30:59;6.97;;;4.90;;
73508;SDS011;61750;55.036;73.312;2022-10-16T18:33:38;9.10;;;6.18;;
73508;SDS011;61750;55.036;73.312;2022-10-16T18:36:11;10.43;;;6.82;;
73508;SDS011;61750;55.036;73.312;2022-10-16T18:38:38;9.00;;;6.40;;
73508;SDS011;61750;55.036;73.312;2022-10-16T18:41:06;8.90;;;6.75;;
73508;SDS011;61750;55.036;73.312;2022-10-16T18:43:36;9.80;;;6.72;;